Time;durP1;ratioP1;P1;durP2;ratioP2;P2;SDS_P1;SDS_P2;PMS_P1;PMS_P2;Temp;Humidity;BMP_temperature;BMP_pressure;BME280_temperature;BME280_humidity;BME280_pressure;Samples;Min_cycle;Max_cycle;Signal;HPM_P1;HPM_P2
2022/01/03 00:00:55;;;;;;;33.67;8.57;;;10.10;99.90;;;;;;6240646;23;20174;-85
2022/01/03 00:03:22;;;;;;;36.50;8.50;;;10.10;99.90;;;;;;6242075;23;20169;-85
2022/01/03 00:05:48;;;;;;;54.10;11.03;;;10.00;99.90;;;;;;6241407;23;20188;-84
2022/01/03 00:08:15;;;;;;;42.47;8.53;;;10.00;99.90;;;;;;6242222;23;20173;-84
2022/01/03 00:10:44;;;;;;;44.30;8.80;;;10.00;99.90;;;;;;6241460;23;20173;-87
2022/01/03 00:13:11;;;;;;;33.87;6.90;;;10.00;99.90;;;;;;6241185;23;20193;-82
2022/01/03 00:15:38;;;;;;;27.80;6.57;;;10.00;99.90;;;;;;6243490;23;20177;-83
2022/01/03 00:18:05;;;;;;;37.60;7.60;;;9.90;99.90;;;;;;6245075;23;20357;-84
2022/01/03 00:20:32;;;;;;;35.87;7.73;;;9.90;99.90;;;;;;6238973;23;20194;-81
2022/01/03 00:23:04;;;;;;;41.07;9.40;;;9.90;99.90;;;;;;6213404;23;20253;-85
2022/01/03 00:25:35;;;;;;;33.37;7.13;;;9.90;99.90;;;;;;6213114;23;20170;-84
2022/01/03 00:28:12;;;;;;;49.73;10.27;;;9.90;99.90;;;;;;6212163;23;20206;-83
2022/01/03 00:30:39;;;;;;;46.50;9.10;;;9.90;99.90;;;;;;6211477;23;20174;-84
2022/01/03 00:33:06;;;;;;;40.40;9.23;;;9.80;99.90;;;;;;6211981;23;20190;-84
2022/01/03 00:35:37;;;;;;;43.93;10.10;;;9.80;99.90;;;;;;6212801;23;20174;-86
2022/01/03 00:38:07;;;;;;;38.47;9.33;;;9.80;99.90;;;;;;6212617;23;20551;-83
2022/01/03 00:40:35;;;;;;;38.77;9.37;;;9.90;99.90;;;;;;6212277;23;20166;-83
2022/01/03 00:43:04;;;;;;;45.13;10.87;;;9.90;99.90;;;;;;6211801;23;20661;-84
2022/01/03 00:45:31;;;;;;;45.43;9.00;;;9.90;99.90;;;;;;6211289;23;20181;-83
2022/01/03 00:47:58;;;;;;;35.50;8.13;;;9.80;99.90;;;;;;6211444;23;20165;-84
2022/01/03 00:50:26;;;;;;;43.37;10.27;;;9.90;99.90;;;;;;6212419;23;20457;-82
2022/01/03 00:52:53;;;;;;;48.43;9.00;;;9.80;99.90;;;;;;6211093;23;20232;-82
2022/01/03 00:55:20;;;;;;;36.33;8.77;;;9.80;99.90;;;;;;6211722;23;20202;-84
2022/01/03 00:58:03;;;;;;;39.47;8.53;;;9.80;99.90;;;;;;6212034;23;20178;-84
2022/01/03 01:00:36;;;;;;;36.00;8.80;;;9.80;99.90;;;;;;6210839;23;20504;-83
2022/01/03 01:03:10;;;;;;;44.87;9.67;;;9.90;99.90;;;;;;6211202;23;20200;-83
2022/01/03 01:05:39;;;;;;;39.83;8.80;;;9.90;99.90;;;;;;6211154;23;20174;-84
2022/01/03 01:08:06;;;;;;;36.73;9.50;;;9.90;99.90;;;;;;6211313;23;20242;-80
2022/01/03 01:10:35;;;;;;;44.43;9.30;;;9.90;99.90;;;;;;6211349;23;20174;-83
2022/01/03 01:13:03;;;;;;;37.37;9.50;;;9.90;99.90;;;;;;6210777;23;20205;-82
2022/01/03 01:15:31;;;;;;;40.70;9.23;;;9.80;99.90;;;;;;6211491;23;20170;-85
2022/01/03 01:18:00;;;;;;;48.27;10.70;;;9.90;99.90;;;;;;6211377;23;20473;-82
2022/01/03 01:20:27;;;;;;;37.90;9.00;;;9.90;99.90;;;;;;6210958;23;20180;-84
2022/01/03 01:22:54;;;;;;;30.90;7.80;;;9.90;99.90;;;;;;6211260;23;20174;-83
2022/01/03 01:27:45;;;;;;;55.17;11.23;;;9.90;99.90;;;;;;6210528;23;20166;-84
2022/01/03 01:28:13;;;;;;;43.40;10.10;;;9.90;99.90;;;;;;6208328;23;20257;-84
2022/01/03 01:30:42;;;;;;;38.57;8.07;;;9.90;99.90;;;;;;6209838;23;20885;-82
2022/01/03 01:33:12;;;;;;;34.87;8.97;;;9.90;99.90;;;;;;6211318;23;20194;-82
2022/01/03 01:35:43;;;;;;;44.43;9.13;;;9.90;99.90;;;;;;6210393;23;20542;-83
2022/01/03 01:38:10;;;;;;;49.50;11.03;;;9.90;99.90;;;;;;6210718;23;20170;-83
2022/01/03 01:40:44;;;;;;;44.00;10.50;;;9.90;99.90;;;;;;6211492;23;20177;-83
2022/01/03 01:43:13;;;;;;;36.67;8.87;;;9.90;99.90;;;;;;6211337;23;20189;-83
2022/01/03 01:45:43;;;;;;;45.37;10.87;;;9.90;99.90;;;;;;6211102;23;20583;-82
2022/01/03 01:48:12;;;;;;;38.47;9.60;;;9.90;99.90;;;;;;6211310;23;20545;-82
2022/01/03 01:50:41;;;;;;;43.57;10.23;;;9.90;99.90;;;;;;6210158;23;20174;-83
2022/01/03 01:53:09;;;;;;;43.37;9.70;;;9.90;99.90;;;;;;6209812;23;20618;-83
2022/01/03 01:55:41;;;;;;;40.00;8.37;;;9.90;99.90;;;;;;6210327;23;20193;-83
2022/01/03 01:58:20;;;;;;;43.07;8.97;;;9.90;99.90;;;;;;6211324;23;20229;-82
2022/01/03 02:00:56;;;;;;;51.10;9.70;;;9.90;99.90;;;;;;6211300;23;20186;-84
2022/01/03 02:03:35;;;;;;;42.47;9.50;;;9.80;99.90;;;;;;6211738;23;20166;-82
2022/01/03 02:06:19;;;;;;;48.30;10.97;;;9.80;99.90;;;;;;6211145;23;20158;-83
2022/01/03 02:08:57;;;;;;;37.27;9.47;;;9.80;99.90;;;;;;6210517;23;20162;-83
2022/01/03 02:11:33;;;;;;;41.17;9.33;;;9.80;99.90;;;;;;6210518;23;20169;-83
2022/01/03 02:14:00;;;;;;;40.33;9.13;;;9.80;99.90;;;;;;6209920;23;20560;-81
2022/01/03 02:16:29;;;;;;;46.23;9.80;;;9.80;99.90;;;;;;6210857;23;20174;-82
2022/01/03 02:18:55;;;;;;;40.93;9.47;;;9.80;99.90;;;;;;6211374;23;20174;-82
2022/01/03 02:21:24;;;;;;;42.10;8.50;;;9.80;99.90;;;;;;6210597;23;20190;-82
2022/01/03 02:23:51;;;;;;;49.87;9.77;;;9.70;99.90;;;;;;6210952;23;20167;-83
2022/01/03 02:26:17;;;;;;;44.07;9.63;;;9.80;99.90;;;;;;6210730;23;20598;-86
2022/01/03 02:28:44;;;;;;;47.60;9.07;;;9.80;99.90;;;;;;6211390;23;20174;-83
2022/01/03 02:31:11;;;;;;;44.27;10.30;;;9.80;99.90;;;;;;6212363;23;20181;-82
2022/01/03 02:33:38;;;;;;;49.57;11.90;;;9.80;99.90;;;;;;6211601;23;20201;-84
2022/01/03 02:36:06;;;;;;;63.97;11.47;;;9.80;99.90;;;;;;6211598;23;20174;-82
2022/01/03 02:38:34;;;;;;;48.47;9.00;;;9.80;99.90;;;;;;6210685;23;20170;-83
2022/01/03 02:41:01;;;;;;;46.13;10.37;;;9.80;99.90;;;;;;6211275;23;20446;-83
2022/01/03 02:43:28;;;;;;;44.47;9.20;;;9.80;99.90;;;;;;6211474;23;20181;-84
2022/01/03 02:45:56;;;;;;;35.43;8.03;;;9.80;99.90;;;;;;6210416;23;20170;-84
2022/01/03 02:48:23;;;;;;;35.60;8.53;;;9.80;99.90;;;;;;6210714;23;20166;-84
2022/01/03 02:50:50;;;;;;;42.80;10.30;;;9.80;99.90;;;;;;6211061;23;20181;-84
2022/01/03 02:53:17;;;;;;;39.27;8.20;;;9.80;99.90;;;;;;6211046;23;20193;-84
2022/01/03 02:55:45;;;;;;;40.97;8.40;;;9.90;99.90;;;;;;6209931;23;20446;-83
2022/01/03 02:58:12;;;;;;;34.83;8.07;;;9.90;99.90;;;;;;6209939;23;20170;-84
2022/01/03 03:00:45;;;;;;;42.30;9.53;;;9.90;99.90;;;;;;6207368;23;20189;-83
2022/01/03 03:03:12;;;;;;;42.53;8.93;;;9.80;99.90;;;;;;6211046;23;20169;-82
2022/01/03 03:05:39;;;;;;;37.77;8.37;;;9.80;99.90;;;;;;6210710;23;20185;-85
2022/01/03 03:08:06;;;;;;;48.47;10.47;;;9.80;99.90;;;;;;6210095;23;20176;-82
2022/01/03 03:10:33;;;;;;;45.50;8.53;;;9.80;99.90;;;;;;6209826;23;20166;-83
2022/01/03 03:13:01;;;;;;;41.80;9.17;;;9.80;99.90;;;;;;6208944;23;20200;-82
2022/01/03 03:15:28;;;;;;;50.03;9.07;;;9.80;99.90;;;;;;6211689;23;20178;-84
2022/01/03 03:17:55;;;;;;;47.33;10.17;;;9.80;99.90;;;;;;6209493;23;20193;-83
2022/01/03 03:20:25;;;;;;;42.93;10.13;;;9.80;99.90;;;;;;6210009;23;20169;-80
2022/01/03 03:22:52;;;;;;;51.87;11.30;;;9.80;99.90;;;;;;6210068;23;20173;-83
2022/01/03 03:25:21;;;;;;;45.73;9.63;;;9.80;99.90;;;;;;6211118;23;20171;-84
2022/01/03 03:27:50;;;;;;;48.77;10.50;;;9.80;99.90;;;;;;6211091;23;20226;-84
2022/01/03 03:30:21;;;;;;;48.97;10.97;;;9.90;99.90;;;;;;6210019;23;20470;-85
2022/01/03 03:32:50;;;;;;;48.23;11.13;;;9.90;99.90;;;;;;6210867;23;20194;-83
2022/01/03 03:35:17;;;;;;;41.03;10.80;;;9.90;99.90;;;;;;6211447;23;20180;-82
2022/01/03 03:37:44;;;;;;;40.67;10.63;;;9.90;99.90;;;;;;6210199;23;20249;-82
2022/01/03 03:40:12;;;;;;;56.53;10.47;;;9.80;99.90;;;;;;6210725;23;20178;-83
2022/01/03 03:42:39;;;;;;;49.13;11.43;;;9.80;99.90;;;;;;6210874;23;20189;-83
2022/01/03 03:45:07;;;;;;;48.67;11.10;;;9.90;99.90;;;;;;6210129;23;20575;-84
2022/01/03 03:47:36;;;;;;;48.13;11.20;;;9.90;99.90;;;;;;6210434;23;20174;-84
2022/01/03 03:50:04;;;;;;;41.97;10.60;;;9.90;99.90;;;;;;6212029;23;20181;-82
2022/01/03 03:52:31;;;;;;;43.23;11.53;;;9.90;99.90;;;;;;6211925;23;20777;-82
2022/01/03 03:54:58;;;;;;;45.90;9.63;;;9.80;99.90;;;;;;6212799;23;20169;-82
2022/01/03 03:57:25;;;;;;;40.87;10.13;;;9.80;99.90;;;;;;6213014;23;20658;-84
2022/01/03 03:59:52;;;;;;;44.33;10.60;;;9.80;99.90;;;;;;6212093;23;20174;-83
2022/01/03 04:02:18;;;;;;;46.57;9.93;;;9.80;99.90;;;;;;6212582;23;20174;-83
2022/01/03 04:04:47;;;;;;;47.97;9.73;;;9.80;99.90;;;;;;6211767;23;20174;-83
2022/01/03 04:07:13;;;;;;;45.00;9.67;;;9.80;99.90;;;;;;6212482;23;20178;-82
2022/01/03 04:09:40;;;;;;;45.97;9.67;;;9.80;99.90;;;;;;6212481;23;20170;-82
2022/01/03 04:12:08;;;;;;;45.03;9.27;;;9.80;99.90;;;;;;6212449;23;20181;-83
2022/01/03 04:14:34;;;;;;;41.87;9.40;;;9.80;99.90;;;;;;6211697;23;20200;-84
2022/01/03 04:17:01;;;;;;;36.40;8.27;;;9.80;99.90;;;;;;6212369;23;20181;-83
2022/01/03 04:19:28;;;;;;;53.67;11.03;;;9.80;99.90;;;;;;6211572;23;20186;-84
2022/01/03 04:21:56;;;;;;;38.37;9.07;;;9.80;99.90;;;;;;6211479;23;20587;-84
2022/01/03 04:24:23;;;;;;;33.93;7.27;;;9.80;99.90;;;;;;6211505;23;20178;-83
2022/01/03 04:26:50;;;;;;;40.07;7.87;;;9.80;99.90;;;;;;6210787;23;20205;-84
2022/01/03 04:29:17;;;;;;;36.97;7.63;;;9.80;99.90;;;;;;6211260;23;20201;-84
2022/01/03 04:31:43;;;;;;;37.63;7.53;;;9.80;99.90;;;;;;6208507;23;20178;-84
2022/01/03 04:34:10;;;;;;;42.00;7.97;;;9.80;99.90;;;;;;6211339;23;20198;-84
2022/01/03 04:36:37;;;;;;;47.37;9.63;;;9.80;99.90;;;;;;6212419;23;20682;-83
2022/01/03 04:39:07;;;;;;;39.73;7.37;;;9.80;99.90;;;;;;6211816;23;20170;-83
2022/01/03 04:41:34;;;;;;;48.20;9.57;;;9.80;99.90;;;;;;6212576;23;20185;-85
2022/01/03 04:44:05;;;;;;;36.00;7.93;;;9.70;99.90;;;;;;6212779;23;20232;-83
2022/01/03 04:46:32;;;;;;;45.07;7.87;;;9.70;99.90;;;;;;6211791;23;20174;-83
2022/01/03 04:48:59;;;;;;;35.23;9.13;;;9.70;99.90;;;;;;6212264;23;20170;-83
2022/01/03 04:51:25;;;;;;;37.87;7.97;;;9.70;99.90;;;;;;6212246;23;20178;-84
2022/01/03 04:53:52;;;;;;;43.10;8.93;;;9.60;99.90;;;;;;6211936;23;20586;-84
2022/01/03 04:56:21;;;;;;;40.87;8.83;;;9.60;99.90;;;;;;6213760;23;20170;-84
2022/01/03 04:58:47;;;;;;;37.07;9.10;;;9.70;99.90;;;;;;6214189;23;20174;-82
2022/01/03 05:01:14;;;;;;;44.87;9.33;;;9.60;99.90;;;;;;6211522;23;20419;-84
2022/01/03 05:03:41;;;;;;;42.90;8.87;;;9.60;99.90;;;;;;6211905;23;20166;-83
2022/01/03 05:06:08;;;;;;;36.23;8.20;;;9.60;99.90;;;;;;6212377;23;20178;-84
2022/01/03 05:08:35;;;;;;;46.50;9.37;;;9.60;99.90;;;;;;6211813;23;20185;-83
2022/01/03 05:11:02;;;;;;;45.00;9.30;;;9.70;99.90;;;;;;6212279;23;20184;-84
2022/01/03 05:13:32;;;;;;;51.27;8.53;;;9.70;99.90;;;;;;6211220;23;20185;-84
2022/01/03 05:16:00;;;;;;;50.17;9.23;;;9.70;99.90;;;;;;6212307;23;20170;-85
2022/01/03 05:18:27;;;;;;;36.20;7.23;;;9.70;99.90;;;;;;6212585;23;20529;-83
2022/01/03 05:20:54;;;;;;;44.23;8.47;;;9.70;99.90;;;;;;6211891;23;20544;-82
2022/01/03 05:23:21;;;;;;;37.47;7.87;;;9.70;99.90;;;;;;6211269;23;20169;-83
2022/01/03 05:25:48;;;;;;;40.00;7.60;;;9.70;99.90;;;;;;6210001;23;20576;-83
2022/01/03 05:28:15;;;;;;;35.97;7.77;;;9.70;99.90;;;;;;6212101;23;20174;-83
2022/01/03 05:30:43;;;;;;;41.80;8.80;;;9.70;99.90;;;;;;6211384;23;20441;-83
2022/01/03 05:33:10;;;;;;;37.77;8.03;;;9.60;99.90;;;;;;6211672;23;20181;-84
2022/01/03 05:35:37;;;;;;;34.23;7.67;;;9.60;99.90;;;;;;6211218;23;20249;-84
2022/01/03 05:38:04;;;;;;;36.20;6.67;;;9.60;99.90;;;;;;6211411;23;20430;-84
2022/01/03 05:40:31;;;;;;;33.37;8.17;;;9.60;99.90;;;;;;6211366;23;20178;-85
2022/01/03 05:42:58;;;;;;;43.43;7.90;;;9.50;99.90;;;;;;6209757;23;20174;-82
2022/01/03 05:45:25;;;;;;;32.67;6.93;;;9.50;99.90;;;;;;6207778;23;20176;-84
2022/01/03 05:47:53;;;;;;;43.90;8.40;;;9.50;99.90;;;;;;6208336;23;20239;-84
2022/01/03 05:50:20;;;;;;;44.33;8.43;;;9.50;99.90;;;;;;6207749;23;20182;-82
2022/01/03 05:52:47;;;;;;;37.27;8.57;;;9.60;99.90;;;;;;6208495;23;20170;-82
2022/01/03 05:55:16;;;;;;;40.03;7.37;;;9.60;99.90;;;;;;6209653;23;20198;-83
2022/01/03 05:57:43;;;;;;;42.93;7.60;;;9.60;99.90;;;;;;6209108;23;20173;-84
2022/01/03 06:00:13;;;;;;;36.20;8.23;;;9.60;99.90;;;;;;6208514;23;20224;-83
2022/01/03 06:02:42;;;;;;;45.53;8.43;;;9.60;99.90;;;;;;6206764;23;20225;-83
2022/01/03 06:05:18;;;;;;;43.63;8.43;;;9.60;99.90;;;;;;6209020;23;20248;-82
2022/01/03 06:07:44;;;;;;;31.17;7.50;;;9.60;99.90;;;;;;6209877;23;20253;-81
2022/01/03 06:10:16;;;;;;;35.77;7.93;;;9.60;99.90;;;;;;6207919;23;20847;-82
2022/01/03 06:12:45;;;;;;;48.80;8.13;;;9.60;99.90;;;;;;6209601;23;20162;-82
2022/01/03 06:15:13;;;;;;;39.13;6.87;;;9.60;99.90;;;;;;6210219;23;20574;-83
2022/01/03 06:17:40;;;;;;;46.93;8.70;;;9.60;99.90;;;;;;6211678;23;20182;-84
2022/01/03 06:20:11;;;;;;;36.80;7.43;;;9.60;99.90;;;;;;6210302;23;20174;-83
2022/01/03 06:22:39;;;;;;;43.60;8.07;;;9.60;99.90;;;;;;6210129;23;20814;-82
2022/01/03 06:25:07;;;;;;;40.87;8.70;;;9.60;99.90;;;;;;6210815;23;20190;-83
2022/01/03 06:27:34;;;;;;;49.33;9.77;;;9.50;99.90;;;;;;6209391;23;20198;-82
2022/01/03 06:30:01;;;;;;;41.50;8.97;;;9.50;99.90;;;;;;6210916;23;20178;-83
2022/01/03 06:32:27;;;;;;;36.23;8.47;;;9.50;99.90;;;;;;6210595;23;20170;-83
2022/01/03 06:34:54;;;;;;;46.57;8.03;;;9.50;99.90;;;;;;6210106;23;20198;-82
2022/01/03 06:37:22;;;;;;;43.73;7.37;;;9.50;99.90;;;;;;6210074;23;20177;-83
2022/01/03 06:39:49;;;;;;;40.33;8.57;;;9.50;99.90;;;;;;6210218;23;20567;-83
2022/01/03 06:42:16;;;;;;;33.83;6.57;;;9.50;99.90;;;;;;6210309;23;20177;-82
2022/01/03 06:44:45;;;;;;;45.13;8.27;;;9.50;99.90;;;;;;6210170;23;20166;-82
2022/01/03 06:47:12;;;;;;;45.90;8.30;;;9.50;99.90;;;;;;6210291;23;20232;-82
2022/01/03 06:49:39;;;;;;;51.57;9.90;;;9.50;99.90;;;;;;6210693;23;20170;-82
2022/01/03 06:52:06;;;;;;;45.87;7.93;;;9.50;99.90;;;;;;6210358;23;20170;-83
2022/01/03 06:54:35;;;;;;;38.93;7.83;;;9.50;99.90;;;;;;6209272;23;20226;-82
2022/01/03 06:57:02;;;;;;;37.23;8.60;;;9.50;99.90;;;;;;6209770;23;20174;-83
2022/01/03 06:59:28;;;;;;;43.10;7.87;;;9.50;99.90;;;;;;6216888;23;20204;-82
2022/01/03 07:01:56;;;;;;;35.20;7.23;;;9.50;99.90;;;;;;6240374;23;20189;-83
2022/01/03 07:04:22;;;;;;;36.63;8.30;;;9.50;99.90;;;;;;6240497;23;20180;-84
2022/01/03 07:06:49;;;;;;;40.47;8.27;;;9.50;99.90;;;;;;6240889;23;20468;-83
2022/01/03 07:09:16;;;;;;;47.53;8.27;;;9.50;99.90;;;;;;6239928;23;20177;-83
2022/01/03 07:11:44;;;;;;;43.90;8.83;;;9.50;99.90;;;;;;6238511;23;20180;-83
2022/01/03 07:19:44;;;;;;;35.37;7.33;;;9.50;99.90;;;;;;6240395;23;20168;-84
2022/01/03 07:22:11;;;;;;;39.07;6.77;;;9.50;99.90;;;;;;6213660;23;20196;-84
2022/01/03 07:24:40;;;;;;;49.70;9.00;;;9.50;99.90;;;;;;6210163;23;20174;-84
2022/01/03 07:27:10;;;;;;;37.30;7.13;;;9.60;99.90;;;;;;6209746;23;20178;-84
2022/01/03 07:29:37;;;;;;;39.93;7.53;;;9.60;99.90;;;;;;6209908;23;20158;-84
2022/01/03 07:32:05;;;;;;;37.23;7.47;;;9.60;99.90;;;;;;6210034;23;20181;-83
2022/01/03 07:34:35;;;;;;;32.77;7.53;;;9.60;99.90;;;;;;6206107;23;20201;-84
2022/01/03 07:37:02;;;;;;;39.67;7.70;;;9.60;99.90;;;;;;6210792;23;20185;-85
2022/01/03 07:39:30;;;;;;;41.60;8.10;;;9.60;99.90;;;;;;6211730;23;20184;-84
2022/01/03 07:41:57;;;;;;;41.10;7.50;;;9.60;99.90;;;;;;6209630;23;20209;-83
2022/01/03 07:44:25;;;;;;;37.90;8.57;;;9.60;99.90;;;;;;6210058;23;20477;-82
2022/01/03 07:46:54;;;;;;;49.93;8.00;;;9.60;99.90;;;;;;6210822;23;20174;-82
2022/01/03 07:49:20;;;;;;;40.57;8.60;;;9.60;99.90;;;;;;6210771;23;20840;-84
2022/01/03 07:51:47;;;;;;;37.17;7.33;;;9.60;99.90;;;;;;6211208;23;20177;-84
2022/01/03 07:54:14;;;;;;;37.17;6.67;;;9.60;99.90;;;;;;6210328;23;20190;-83
2022/01/03 07:56:41;;;;;;;31.20;7.03;;;9.70;99.90;;;;;;6210337;23;20181;-84
2022/01/03 07:59:08;;;;;;;41.17;7.43;;;9.70;99.90;;;;;;6206468;23;20181;-84
2022/01/03 08:01:45;;;;;;;35.83;7.40;;;9.70;99.90;;;;;;6162937;23;20678;-85
2022/01/03 08:04:12;;;;;;;40.50;8.77;;;9.70;99.90;;;;;;6180422;23;20487;-84
2022/01/03 08:06:39;;;;;;;40.70;8.00;;;9.70;99.90;;;;;;6180336;23;20591;-82
2022/01/03 08:09:06;;;;;;;33.10;6.77;;;9.70;99.90;;;;;;6179907;23;20202;-84
2022/01/03 08:11:33;;;;;;;41.00;8.50;;;9.60;99.90;;;;;;6180715;23;20171;-84
2022/01/03 08:13:59;;;;;;;30.53;7.00;;;9.70;99.90;;;;;;6181154;23;20175;-84
2022/01/03 08:16:26;;;;;;;37.03;6.80;;;9.70;99.90;;;;;;6180613;23;20174;-82
2022/01/03 08:18:54;;;;;;;34.50;7.30;;;9.70;99.90;;;;;;6173732;23;20175;-85
2022/01/03 08:21:21;;;;;;;39.40;7.80;;;9.60;99.90;;;;;;6187858;23;20216;-82
2022/01/03 08:23:48;;;;;;;45.23;9.10;;;9.60;99.90;;;;;;6185147;23;20170;-83
2022/01/03 08:26:15;;;;;;;52.03;10.13;;;9.70;99.90;;;;;;6180948;23;20175;-84
2022/01/03 08:28:41;;;;;;;44.50;7.50;;;9.70;99.90;;;;;;6180931;23;20170;-85
2022/01/03 08:31:08;;;;;;;35.27;9.00;;;9.70;99.90;;;;;;6178619;23;20181;-84
2022/01/03 08:33:35;;;;;;;37.50;7.80;;;9.70;99.90;;;;;;6179970;23;20182;-85
2022/01/03 08:36:04;;;;;;;35.43;7.87;;;9.70;99.90;;;;;;6182532;23;20205;-84
2022/01/03 08:38:31;;;;;;;36.50;7.10;;;9.70;99.90;;;;;;6182353;23;20171;-83
2022/01/03 08:40:57;;;;;;;41.80;8.63;;;9.70;99.90;;;;;;6182225;23;20199;-84
2022/01/03 08:43:24;;;;;;;36.10;7.17;;;9.70;99.90;;;;;;6182822;23;20167;-85
2022/01/03 08:45:51;;;;;;;35.27;6.63;;;9.60;99.90;;;;;;6182257;23;20175;-83
2022/01/03 08:48:18;;;;;;;36.80;7.07;;;9.70;99.90;;;;;;6182534;23;20241;-84
2022/01/03 08:50:45;;;;;;;36.03;7.07;;;9.70;99.90;;;;;;6182898;23;20182;-83
2022/01/03 08:53:13;;;;;;;25.83;6.60;;;9.60;99.90;;;;;;6183823;23;20690;-81
2022/01/03 08:55:42;;;;;;;38.30;7.60;;;9.60;99.90;;;;;;6182525;23;20190;-83
2022/01/03 08:58:08;;;;;;;34.83;7.73;;;9.70;99.90;;;;;;6182499;23;20178;-82
2022/01/03 09:00:36;;;;;;;41.47;7.73;;;9.70;99.90;;;;;;6201059;23;20217;-81
2022/01/03 09:03:02;;;;;;;34.30;6.50;;;9.70;99.90;;;;;;6211252;23;20201;-82
2022/01/03 09:05:29;;;;;;;36.73;7.50;;;9.70;99.90;;;;;;6208711;23;20176;-85
2022/01/03 09:07:56;;;;;;;42.03;7.37;;;9.70;99.90;;;;;;6208648;23;20170;-84
2022/01/03 09:10:24;;;;;;;44.47;7.43;;;9.70;99.90;;;;;;6210538;23;20382;-84
2022/01/03 09:12:51;;;;;;;41.13;7.80;;;9.70;99.90;;;;;;6211012;23;20166;-86
2022/01/03 09:15:18;;;;;;;30.40;6.00;;;9.80;99.90;;;;;;6212080;23;20200;-84
2022/01/03 09:17:45;;;;;;;47.37;8.13;;;9.80;99.90;;;;;;6212283;23;20213;-84
2022/01/03 09:20:13;;;;;;;39.80;8.83;;;9.80;99.90;;;;;;6212439;23;20174;-82
2022/01/03 09:22:43;;;;;;;42.90;7.67;;;9.80;99.90;;;;;;6211179;23;20170;-84
2022/01/03 09:30:40;;;;;;;35.53;8.33;;;9.80;99.90;;;;;;6212456;23;20505;-83
2022/01/03 09:33:07;;;;;;;36.00;7.13;;;9.80;99.90;;;;;;6213228;23;20800;-83
2022/01/03 09:35:34;;;;;;;42.37;7.83;;;9.80;99.90;;;;;;6211308;23;20885;-84
2022/01/03 09:38:01;;;;;;;44.90;9.37;;;9.90;99.90;;;;;;6211416;23;20166;-82
2022/01/03 09:40:27;;;;;;;37.10;6.93;;;9.90;99.90;;;;;;6212056;23;20174;-84
2022/01/03 09:42:58;;;;;;;36.03;6.80;;;9.90;99.90;;;;;;6212948;23;20185;-82
2022/01/03 09:45:28;;;;;;;48.67;8.57;;;9.90;99.90;;;;;;6210416;23;20181;-82
2022/01/03 09:47:57;;;;;;;36.67;7.80;;;9.90;99.90;;;;;;6209373;23;20261;-84
2022/01/03 09:50:24;;;;;;;38.13;7.37;;;9.90;99.90;;;;;;6209433;23;20182;-81
2022/01/03 09:52:52;;;;;;;36.77;6.47;;;9.90;99.90;;;;;;6209489;23;20177;-82
2022/01/03 09:55:21;;;;;;;41.37;7.93;;;10.00;99.90;;;;;;6209251;23;20190;-82
2022/01/03 09:57:48;;;;;;;29.47;6.90;;;10.00;99.90;;;;;;6208252;23;20563;-82
2022/01/03 10:00:22;;;;;;;41.57;6.77;;;10.00;99.90;;;;;;6209699;23;20276;-82
2022/01/03 10:02:50;;;;;;;30.23;7.47;;;10.00;99.90;;;;;;6210338;23;20168;-81
2022/01/03 10:05:17;;;;;;;34.07;9.00;;;10.00;99.90;;;;;;6209647;23;20174;-81
2022/01/03 10:07:44;;;;;;;46.37;9.87;;;10.00;99.90;;;;;;6208989;23;20198;-82
2022/01/03 10:10:12;;;;;;;32.00;7.73;;;10.00;99.90;;;;;;6220815;23;20616;-82
2022/01/03 10:12:39;;;;;;;35.83;8.57;;;10.00;99.90;;;;;;6240827;23;20174;-84
2022/01/03 10:15:08;;;;;;;41.63;8.23;;;10.00;99.90;;;;;;6241136;23;20637;-83
2022/01/03 10:17:37;;;;;;;35.57;7.70;;;10.00;99.90;;;;;;6241205;23;20181;-83
2022/01/03 10:20:06;;;;;;;38.97;8.20;;;10.00;99.90;;;;;;6241572;23;20196;-83
2022/01/03 10:22:34;;;;;;;36.47;8.00;;;10.00;99.90;;;;;;6210849;23;20573;-83
2022/01/03 10:25:09;;;;;;;38.03;8.03;;;10.00;99.90;;;;;;6210790;23;20178;-84
2022/01/03 10:27:48;;;;;;;35.37;6.80;;;10.10;99.90;;;;;;6210861;23;20165;-84
2022/01/03 10:30:29;;;;;;;29.13;6.53;;;10.10;99.90;;;;;;6211044;23;20177;-82
2022/01/03 10:32:58;;;;;;;39.27;8.20;;;10.10;99.90;;;;;;6210538;23;20166;-83
2022/01/03 10:35:26;;;;;;;50.97;10.07;;;10.10;99.90;;;;;;6207758;23;20208;-83
2022/01/03 10:37:53;;;;;;;51.93;8.67;;;10.10;99.90;;;;;;6208268;23;20177;-82
2022/01/03 10:40:25;;;;;;;37.27;7.13;;;10.10;99.90;;;;;;6212575;23;20174;-83
2022/01/03 10:42:53;;;;;;;40.50;7.70;;;10.10;99.90;;;;;;6215755;23;20169;-83
2022/01/03 10:45:34;;;;;;;35.60;6.67;;;10.10;99.90;;;;;;6211707;23;20201;-83
2022/01/03 10:48:02;;;;;;;39.17;6.93;;;10.10;99.90;;;;;;6210118;23;20518;-83
2022/01/03 10:50:29;;;;;;;31.73;7.27;;;10.10;99.90;;;;;;6209777;23;20170;-83
2022/01/03 10:52:56;;;;;;;32.40;6.90;;;10.10;99.90;;;;;;6209796;23;20166;-83
2022/01/03 10:55:33;;;;;;;39.70;8.93;;;10.10;99.90;;;;;;6209529;23;20198;-83
2022/01/03 10:58:01;;;;;;;39.30;7.70;;;10.10;99.90;;;;;;6210421;23;20169;-82
2022/01/03 11:00:34;;;;;;;41.97;8.40;;;10.10;99.90;;;;;;6208207;23;20189;-82
2022/01/03 11:03:23;;;;;;;41.97;8.07;;;10.20;99.90;;;;;;6209737;23;20170;-83
2022/01/03 11:05:54;;;;;;;44.73;9.57;;;10.20;99.90;;;;;;6209810;23;20166;-82
2022/01/03 11:11:09;;;;;;;46.77;9.93;;;10.20;99.90;;;;;;6209445;23;20205;-82
2022/01/03 11:13:39;;;;;;;52.83;8.73;;;10.20;99.90;;;;;;6207038;23;20177;-81
2022/01/03 11:16:08;;;;;;;39.23;8.40;;;10.20;99.90;;;;;;6208888;23;20190;-82
2022/01/03 11:18:38;;;;;;;47.37;9.27;;;10.30;99.90;;;;;;6209464;23;20180;-82
2022/01/03 11:21:09;;;;;;;51.67;10.73;;;10.30;99.90;;;;;;6209297;23;20197;-82
2022/01/03 11:23:37;;;;;;;45.00;9.53;;;10.30;99.90;;;;;;6209003;23;20177;-82
2022/01/03 11:26:08;;;;;;;48.10;8.17;;;10.30;99.90;;;;;;6209507;23;20171;-82
2022/01/03 11:28:36;;;;;;;53.77;9.67;;;10.30;99.90;;;;;;6208361;23;20182;-82
2022/01/03 11:31:03;;;;;;;51.73;9.03;;;10.30;99.90;;;;;;6209168;23;20170;-82
2022/01/03 11:33:31;;;;;;;46.90;9.83;;;10.30;99.90;;;;;;6208981;23;20567;-82
2022/01/03 11:36:01;;;;;;;53.33;9.30;;;10.30;99.90;;;;;;6208284;23;20190;-82
2022/01/03 11:38:31;;;;;;;57.13;10.70;;;10.30;99.90;;;;;;6209475;23;20253;-81
2022/01/03 11:41:01;;;;;;;50.67;9.33;;;10.30;99.90;;;;;;6183794;23;20184;-83
2022/01/03 11:43:29;;;;;;;54.90;9.17;;;10.40;99.90;;;;;;6208143;23;20204;-83
2022/01/03 11:45:56;;;;;;;45.80;9.03;;;10.40;99.90;;;;;;6209350;23;20233;-83
2022/01/03 11:48:25;;;;;;;44.67;7.97;;;10.40;99.90;;;;;;6208156;23;20172;-83
2022/01/03 11:50:54;;;;;;;54.83;10.27;;;10.40;99.90;;;;;;6208561;23;20206;-81
2022/01/03 11:53:23;;;;;;;37.83;9.13;;;10.50;99.90;;;;;;6208683;23;20174;-83
2022/01/03 11:55:54;;;;;;;52.80;10.50;;;10.50;99.90;;;;;;6208435;23;20198;-81
2022/01/03 11:58:45;;;;;;;49.23;8.23;;;10.50;99.90;;;;;;6207912;23;20173;-82
2022/01/03 12:03:58;;;;;;;46.60;9.20;;;10.60;99.90;;;;;;6207705;23;20273;-82
2022/01/03 12:06:29;;;;;;;40.80;8.00;;;10.70;99.90;;;;;;6208119;23;20173;-80
2022/01/03 12:08:59;;;;;;;44.63;9.23;;;10.70;99.90;;;;;;6208278;23;20170;-82
2022/01/03 12:11:28;;;;;;;55.20;9.23;;;10.80;99.90;;;;;;6206896;23;20177;-81
2022/01/03 12:13:56;;;;;;;44.83;9.13;;;10.80;99.90;;;;;;6210868;23;20177;-81
2022/01/03 12:16:44;;;;;;;45.57;7.73;;;10.80;99.90;;;;;;6210864;23;20205;-83
2022/01/03 12:19:13;;;;;;;48.67;8.63;;;10.80;99.90;;;;;;6209911;23;20232;-81
2022/01/03 12:22:01;;;;;;;42.83;8.70;;;10.80;99.90;;;;;;6211021;23;20641;-83
2022/01/03 12:25:05;;;;;;;51.93;10.87;;;10.70;99.90;;;;;;6209764;23;20174;-81
2022/01/03 12:27:41;;;;;;;55.53;10.30;;;10.70;99.90;;;;;;6211297;23;20513;-81
2022/01/03 12:30:25;;;;;;;41.43;8.20;;;10.70;99.90;;;;;;6210412;23;20253;-82
2022/01/03 12:33:25;;;;;;;52.43;10.80;;;10.60;99.90;;;;;;6207802;23;20165;-82
2022/01/03 12:36:16;;;;;;;49.83;9.43;;;10.60;99.90;;;;;;6209793;23;20197;-82
2022/01/03 12:39:03;;;;;;;58.80;9.67;;;10.60;99.90;;;;;;6208906;23;20240;-83
2022/01/03 12:41:47;;;;;;;41.00;8.60;;;10.60;99.90;;;;;;6209048;23;20158;-82
2022/01/03 12:44:34;;;;;;;37.27;9.40;;;10.60;99.90;;;;;;6209823;23;20174;-83
2022/01/03 12:47:16;;;;;;;48.37;9.43;;;10.60;99.90;;;;;;6209640;23;20170;-83
2022/01/03 12:49:43;;;;;;;51.53;9.07;;;10.60;99.90;;;;;;6209417;23;20196;-83
2022/01/03 12:52:18;;;;;;;41.83;9.67;;;10.60;99.90;;;;;;6210543;23;20170;-82
2022/01/03 12:54:45;;;;;;;62.80;10.07;;;10.50;99.90;;;;;;6209208;23;20570;-80
2022/01/03 12:57:15;;;;;;;49.73;9.40;;;10.50;99.90;;;;;;6210138;23;20202;-82
2022/01/03 12:59:43;;;;;;;47.83;9.33;;;10.50;99.90;;;;;;6210151;23;20163;-82
2022/01/03 13:02:40;;;;;;;49.97;10.60;;;10.60;99.90;;;;;;6210175;23;20447;-80
2022/01/03 13:05:11;;;;;;;46.53;8.93;;;10.60;99.90;;;;;;6087577;23;20183;-81
2022/01/03 13:07:37;;;;;;;40.13;8.73;;;10.60;99.90;;;;;;6183203;23;20178;-82
2022/01/03 13:10:05;;;;;;;39.50;8.57;;;10.60;99.90;;;;;;6234191;23;20216;-79